Terminal Aerodrome Forecast
Issued by NWS

Home | Current Version | Previous Version | Text Only | Print | Product List | Glossary On
Versions: 1 2 3 4 5 6 7 8 9 10 11 12 13 14 15 16 17 18
636
FTUS43 KMQT 261954 AAA
TAFCMX
TAF AMD
KCMX 261954Z 2620/2718 29013G20KT 3/4SM -SHSN BKN020
     FM262100 30013G21KT 2SM -SHSN BKN025
     FM262200 29014KT 4SM BLSN BKN035
     FM262300 29014KT P6SM BKN045
     FM270800 29005KT P6SM BKN070
     FM271400 19005KT P6SM BKN070=

USA.gov is the U.S. government's official web portal to all federal, state and local government web resources and services.